Time;durP1;ratioP1;P1;durP2;ratioP2;P2;SDS_P1;SDS_P2;PMS_P1;PMS_P2;Temp;Humidity;BMP_temperature;BMP_pressure;BME280_temperature;BME280_humidity;BME280_pressure;Samples;Min_cycle;Max_cycle;Signal;HPM_P1;HPM_P2
2022/09/17 00:01:21;;;;;;;6.88;3.05;;;11.10;99.90;;;;;;4973666;28;20047;-48
2022/09/17 00:03:54;;;;;;;3.42;2.80;;;11.10;99.90;;;;;;4985714;28;20054;-47
2022/09/17 00:06:22;;;;;;;5.68;2.92;;;11.10;99.90;;;;;;4990556;28;20108;-48
2022/09/17 00:08:49;;;;;;;3.33;2.80;;;11.10;99.90;;;;;;4993406;28;20096;-49
2022/09/17 00:11:20;;;;;;;6.00;3.30;;;11.00;99.90;;;;;;4992831;28;20042;-47
2022/09/17 00:13:48;;;;;;;9.55;3.17;;;11.00;99.90;;;;;;4989637;28;20078;-47
2022/09/17 00:16:23;;;;;;;4.95;3.35;;;11.00;99.90;;;;;;4990423;28;20123;-48
2022/09/17 00:18:49;;;;;;;5.53;3.30;;;11.00;99.90;;;;;;4992189;28;20053;-47
2022/09/17 00:21:17;;;;;;;4.07;3.03;;;11.00;99.90;;;;;;4991541;28;20043;-49
2022/09/17 00:23:45;;;;;;;3.75;2.58;;;11.00;99.90;;;;;;4992175;28;20113;-48
2022/09/17 00:26:12;;;;;;;6.75;3.13;;;11.00;99.90;;;;;;4986715;28;20042;-47
2022/09/17 00:28:40;;;;;;;4.88;2.97;;;11.00;99.90;;;;;;4992625;28;20499;-49
2022/09/17 00:31:08;;;;;;;3.05;2.40;;;11.10;99.90;;;;;;4987101;28;20503;-49
2022/09/17 00:33:35;;;;;;;3.17;2.35;;;11.10;99.90;;;;;;4992266;28;20038;-47
2022/09/17 00:36:03;;;;;;;;;;;11.10;99.90;;;;;;4974785;28;20042;-47
2022/09/17 00:38:30;;;;;;;9.15;2.60;;;11.10;99.90;;;;;;4991540;28;19921;-47
2022/09/17 00:40:56;;;;;;;5.32;2.10;;;11.00;99.90;;;;;;4992202;28;20125;-48
2022/09/17 00:43:37;;;;;;;4.75;2.35;;;11.00;99.90;;;;;;4992072;28;20130;-47
2022/09/17 00:46:14;;;;;;;5.20;2.53;;;11.00;99.90;;;;;;4988670;28;20077;-50
2022/09/17 00:48:41;;;;;;;6.03;2.60;;;11.00;99.90;;;;;;4992289;28;20447;-51
2022/09/17 00:51:11;;;;;;;3.90;2.33;;;10.80;99.90;;;;;;4991149;28;20499;-47
2022/09/17 00:53:38;;;;;;;3.28;2.10;;;10.90;99.90;;;;;;4991823;28;20069;-49
2022/09/17 00:56:13;;;;;;;5.03;2.17;;;10.80;99.90;;;;;;4985672;28;20047;-50
2022/09/17 00:58:40;;;;;;;5.45;2.33;;;10.70;99.90;;;;;;4992252;28;20038;-50
2022/09/17 01:01:07;;;;;;;2.80;2.00;;;10.70;99.90;;;;;;4991667;28;20051;-48
2022/09/17 01:03:34;;;;;;;6.40;2.50;;;10.70;99.90;;;;;;4991944;28;20112;-48
2022/09/17 01:06:20;;;;;;;4.60;2.63;;;10.60;99.90;;;;;;4990309;28;20121;-48
2022/09/17 01:09:13;;;;;;;5.53;2.45;;;10.60;99.90;;;;;;4992164;28;20133;-50
2022/09/17 01:11:49;;;;;;;3.70;2.30;;;10.60;99.90;;;;;;4990803;28;20050;-48
2022/09/17 01:14:23;;;;;;;3.35;2.03;;;10.60;99.90;;;;;;4991008;28;20534;-48
2022/09/17 01:17:04;;;;;;;3.30;2.20;;;10.60;99.90;;;;;;4991596;28;20077;-48
2022/09/17 01:19:46;;;;;;;5.88;2.42;;;10.60;99.90;;;;;;4986184;28;20069;-50
2022/09/17 01:22:20;;;;;;;5.95;2.78;;;10.60;99.90;;;;;;4991797;28;20537;-49
2022/09/17 01:25:18;;;;;;;4.75;2.92;;;10.60;99.90;;;;;;4991205;28;20050;-48
2022/09/17 01:28:02;;;;;;;6.70;2.92;;;10.60;99.90;;;;;;4968620;28;20062;-48
2022/09/17 01:30:58;;;;;;;8.00;3.08;;;10.60;99.90;;;;;;4991139;28;20057;-47
2022/09/17 01:34:08;;;;;;;5.10;2.67;;;10.70;99.90;;;;;;4987532;28;20049;-48
2022/09/17 01:36:50;;;;;;;6.38;3.35;;;10.60;99.90;;;;;;4991761;28;20043;-48
2022/09/17 01:39:33;;;;;;;7.60;4.00;;;10.60;99.90;;;;;;4990425;28;20584;-49
2022/09/17 01:42:06;;;;;;;5.68;3.85;;;10.60;99.90;;;;;;4991606;28;20046;-47
2022/09/17 01:44:43;;;;;;;10.05;2.95;;;10.70;99.90;;;;;;4973863;28;20466;-50
2022/09/17 01:47:26;;;;;;;3.92;2.15;;;10.70;99.90;;;;;;4991127;28;20092;-50
2022/09/17 01:50:00;;;;;;;3.95;2.88;;;10.50;99.90;;;;;;4986546;28;20119;-50
2022/09/17 01:52:28;;;;;;;4.88;2.33;;;10.50;99.90;;;;;;4991600;28;20121;-47
2022/09/17 01:55:00;;;;;;;4.47;2.53;;;10.40;99.90;;;;;;4991254;28;20125;-51
2022/09/17 01:57:33;;;;;;;6.45;3.28;;;10.40;99.90;;;;;;4991160;28;20113;-49
2022/09/17 02:00:10;;;;;;;7.03;2.90;;;10.40;99.90;;;;;;4991821;28;20129;-49
2022/09/17 02:02:48;;;;;;;2.95;2.40;;;10.50;99.90;;;;;;4991565;28;20130;-51
2022/09/17 02:05:23;;;;;;;8.93;3.40;;;10.50;99.90;;;;;;4989949;28;20511;-48
2022/09/17 02:07:55;;;;;;;8.82;3.00;;;10.40;99.90;;;;;;4991439;28;20117;-49
2022/09/17 02:10:30;;;;;;;6.97;3.03;;;10.40;99.90;;;;;;4991567;28;20133;-49
2022/09/17 02:13:18;;;;;;;3.63;1.85;;;10.40;99.90;;;;;;4990806;28;20081;-47
2022/09/17 02:15:53;;;;;;;3.38;2.00;;;10.10;99.90;;;;;;4989011;28;20125;-48
2022/09/17 02:18:28;;;;;;;3.80;2.17;;;9.90;99.90;;;;;;4991199;28;20511;-47
2022/09/17 02:21:32;;;;;;;5.80;2.00;;;9.80;99.90;;;;;;4991275;28;20074;-48
2022/09/17 02:24:10;;;;;;;4.55;2.42;;;9.60;99.90;;;;;;4989508;28;20128;-48
2022/09/17 02:26:44;;;;;;;4.63;2.00;;;9.60;99.90;;;;;;4991482;28;20129;-47
2022/09/17 02:29:23;;;;;;;4.35;2.08;;;9.50;99.90;;;;;;4991262;28;20077;-51
2022/09/17 02:31:50;;;;;;;4.40;2.40;;;9.50;99.90;;;;;;4989758;28;20495;-48
2022/09/17 02:34:18;;;;;;;6.40;2.70;;;9.50;99.90;;;;;;4990416;28;20054;-49
2022/09/17 02:36:45;;;;;;;5.55;2.67;;;9.50;99.90;;;;;;4990940;28;20081;-49
2022/09/17 02:39:12;;;;;;;3.70;2.30;;;9.60;99.90;;;;;;4985900;28;20071;-47
2022/09/17 02:41:49;;;;;;;4.63;2.53;;;9.60;99.90;;;;;;4990810;28;20146;-49
2022/09/17 02:44:54;;;;;;;3.22;2.05;;;9.60;99.90;;;;;;4991477;28;20769;-50
2022/09/17 02:47:26;;;;;;;4.78;2.03;;;9.60;99.90;;;;;;4994785;28;20129;-48
2022/09/17 02:50:19;;;;;;;7.00;2.25;;;9.60;99.90;;;;;;4989756;28;20046;-50
2022/09/17 02:53:04;;;;;;;3.33;2.03;;;9.60;99.90;;;;;;4990653;28;20126;-48
2022/09/17 02:55:50;;;;;;;5.93;2.50;;;9.60;99.90;;;;;;4992615;28;20066;-47
2022/09/17 02:58:16;;;;;;;4.47;2.15;;;9.60;99.90;;;;;;4991094;28;20050;-48
2022/09/17 03:00:45;;;;;;;3.97;1.75;;;9.60;99.90;;;;;;4993451;28;20074;-48
2022/09/17 03:03:20;;;;;;;6.63;2.40;;;9.60;99.90;;;;;;4994059;28;20334;-48
2022/09/17 03:05:48;;;;;;;6.68;2.33;;;9.60;99.90;;;;;;4993531;28;20476;-48
2022/09/17 03:08:19;;;;;;;5.25;2.65;;;9.60;99.90;;;;;;4993406;28;20042;-51
2022/09/17 03:10:48;;;;;;;4.80;2.40;;;9.60;99.90;;;;;;4994407;28;20084;-49
2022/09/17 03:13:15;;;;;;;7.97;2.90;;;9.60;99.90;;;;;;4993828;28;20141;-48
2022/09/17 03:15:41;;;;;;;7.47;2.50;;;9.60;99.90;;;;;;4991362;28;20056;-47
2022/09/17 03:18:08;;;;;;;4.10;2.65;;;9.60;99.90;;;;;;4990933;28;20048;-48
2022/09/17 03:20:35;;;;;;;6.00;2.60;;;9.60;99.90;;;;;;4993610;28;20074;-49
2022/09/17 03:23:02;;;;;;;2.55;1.83;;;9.60;99.90;;;;;;4993980;28;20080;-51
2022/09/17 03:25:29;;;;;;;2.72;2.13;;;9.60;99.90;;;;;;4991520;28;20558;-51
2022/09/17 03:27:55;;;;;;;7.15;2.38;;;9.60;99.90;;;;;;4993687;28;20046;-50
2022/09/17 03:30:22;;;;;;;4.65;1.95;;;9.60;99.90;;;;;;4993545;28;20084;-48
2022/09/17 03:32:49;;;;;;;10.45;2.55;;;9.50;99.90;;;;;;4993315;28;20085;-48
2022/09/17 03:35:15;;;;;;;3.88;2.15;;;9.50;99.90;;;;;;4987655;28;20125;-50
2022/09/17 03:37:42;;;;;;;3.50;2.10;;;9.40;99.90;;;;;;4993483;28;20121;-49
2022/09/17 03:40:09;;;;;;;4.37;2.27;;;9.40;99.90;;;;;;4993491;28;20372;-50
2022/09/17 03:42:36;;;;;;;4.97;2.42;;;9.40;99.90;;;;;;4991145;28;20777;-47
2022/09/17 03:45:03;;;;;;;11.27;2.53;;;9.30;99.90;;;;;;4988919;28;20050;-47
2022/09/17 03:47:30;;;;;;;3.97;1.83;;;9.30;99.90;;;;;;4992798;28;20038;-49
2022/09/17 03:49:56;;;;;;;2.17;1.90;;;9.30;99.90;;;;;;4979332;28;20062;-50
2022/09/17 03:52:23;;;;;;;5.45;3.17;;;9.30;99.90;;;;;;4989656;28;20565;-48
2022/09/17 03:54:50;;;;;;;9.13;2.75;;;9.30;99.90;;;;;;4988631;28;20126;-49
2022/09/17 03:57:16;;;;;;;3.63;1.88;;;9.30;99.90;;;;;;4973549;28;20128;-48
2022/09/17 03:59:43;;;;;;;2.72;1.90;;;9.20;99.90;;;;;;4987801;28;20578;-48
2022/09/17 04:02:10;;;;;;;3.47;2.13;;;9.20;99.90;;;;;;4986160;28;20579;-48
2022/09/17 04:04:37;;;;;;;4.40;1.55;;;9.20;99.90;;;;;;4991148;28;20041;-48
2022/09/17 04:07:04;;;;;;;5.28;1.00;;;9.20;99.90;;;;;;4993411;28;20125;-47
2022/09/17 04:09:31;;;;;;;2.50;1.40;;;9.10;99.90;;;;;;4991450;28;20051;-47
2022/09/17 04:12:01;;;;;;;2.70;1.33;;;9.10;99.90;;;;;;4992970;28;20105;-47
2022/09/17 04:14:27;;;;;;;4.38;1.40;;;9.10;99.90;;;;;;4991192;28;20101;-48
2022/09/17 04:16:54;;;;;;;3.78;1.35;;;9.10;99.90;;;;;;4992819;28;20070;-49
2022/09/17 04:19:21;;;;;;;1.40;1.10;;;9.10;99.90;;;;;;4991439;28;20560;-47
2022/09/17 04:21:47;;;;;;;1.40;1.08;;;9.00;99.90;;;;;;4992828;28;20463;-48
2022/09/17 04:24:14;;;;;;;2.50;0.88;;;9.00;99.90;;;;;;4992192;28;20062;-48
2022/09/17 04:26:41;;;;;;;2.85;1.58;;;9.00;99.90;;;;;;4992536;28;20129;-47
2022/09/17 04:29:08;;;;;;;4.20;1.50;;;8.90;99.90;;;;;;4991475;28;20499;-47
2022/09/17 04:31:35;;;;;;;2.47;1.67;;;8.90;99.90;;;;;;4992495;28;20065;-49
2022/09/17 04:34:02;;;;;;;2.75;1.17;;;8.90;99.90;;;;;;4992000;28;20050;-48
2022/09/17 04:36:29;;;;;;;1.75;1.10;;;8.80;99.90;;;;;;4993284;28;20125;-48
2022/09/17 04:38:55;;;;;;;3.10;1.05;;;8.80;99.90;;;;;;4991143;28;20125;-47
2022/09/17 04:41:22;;;;;;;2.55;1.00;;;8.80;99.90;;;;;;4992211;28;20169;-49
2022/09/17 04:43:49;;;;;;;1.27;1.00;;;8.80;99.90;;;;;;4990591;28;20181;-47
2022/09/17 04:46:15;;;;;;;2.13;1.03;;;8.70;99.90;;;;;;4992445;28;20042;-49
2022/09/17 04:48:42;;;;;;;1.65;0.80;;;8.70;99.90;;;;;;4991565;28;20717;-48
2022/09/17 04:51:09;;;;;;;2.58;0.93;;;8.60;99.90;;;;;;4991915;28;20185;-48
2022/09/17 04:53:37;;;;;;;2.13;1.20;;;8.60;99.90;;;;;;4987583;28;20543;-49
2022/09/17 04:56:04;;;;;;;5.25;1.42;;;8.60;99.90;;;;;;4992384;28;20073;-50
2022/09/17 04:58:31;;;;;;;6.63;1.63;;;8.50;99.90;;;;;;4991935;28;20039;-49
2022/09/17 05:00:58;;;;;;;1.40;1.00;;;8.50;99.90;;;;;;4985412;28;20047;-48
2022/09/17 05:03:25;;;;;;;2.35;1.20;;;8.50;99.90;;;;;;4991227;28;20047;-48
2022/09/17 05:05:52;;;;;;;1.65;0.82;;;8.50;99.90;;;;;;4982646;28;20065;-48
2022/09/17 05:08:18;;;;;;;1.38;0.85;;;8.50;99.90;;;;;;4991488;28;20535;-48
2022/09/17 05:10:45;;;;;;;1.07;0.83;;;8.50;99.90;;;;;;4990936;28;20495;-48
2022/09/17 05:13:12;;;;;;;1.90;0.87;;;8.50;99.90;;;;;;4991244;28;20310;-48
2022/09/17 05:15:38;;;;;;;1.48;0.70;;;8.50;99.90;;;;;;4977560;28;20121;-50
2022/09/17 05:18:05;;;;;;;1.25;0.90;;;8.50;99.90;;;;;;4991827;28;20080;-48
2022/09/17 05:20:32;;;;;;;0.50;0.50;;;8.50;99.90;;;;;;4991721;28;20121;-48
2022/09/17 05:22:58;;;;;;;4.53;0.80;;;8.40;99.90;;;;;;4991853;28;20084;-51
2022/09/17 05:25:25;;;;;;;1.73;0.70;;;8.40;99.90;;;;;;4990423;28;20470;-48
2022/09/17 05:27:52;;;;;;;9.55;0.95;;;8.40;99.90;;;;;;4991924;28;20125;-51
2022/09/17 05:30:19;;;;;;;4.97;0.70;;;8.40;99.90;;;;;;4975721;28;20085;-49
2022/09/17 05:32:46;;;;;;;1.52;0.65;;;8.40;99.90;;;;;;4984347;28;20113;-48
2022/09/17 05:35:14;;;;;;;4.47;1.10;;;8.40;99.90;;;;;;4986415;28;20085;-49
2022/09/17 05:37:40;;;;;;;3.33;1.20;;;8.40;99.90;;;;;;4991369;28;20070;-48
2022/09/17 05:40:08;;;;;;;5.00;1.10;;;8.40;99.90;;;;;;4986966;28;20042;-51
2022/09/17 05:46:17;;;;;;;3.25;1.08;;;8.40;99.90;;;;;;5061257;28;19908;-46
2022/09/17 05:48:44;;;;;;;4.18;1.10;;;8.40;99.90;;;;;;5070608;28;20047;-47
2022/09/17 05:51:10;;;;;;;2.38;0.93;;;8.40;99.90;;;;;;5054280;28;20116;-46
2022/09/17 05:53:37;;;;;;;4.55;1.33;;;8.40;99.90;;;;;;5087979;28;20123;-47
2022/09/17 05:56:04;;;;;;;1.02;0.80;;;8.40;99.90;;;;;;5107108;28;20522;-46
2022/09/17 05:58:33;;;;;;;4.25;1.25;;;8.40;99.90;;;;;;5103519;28;20109;-46
2022/09/17 06:01:00;;;;;;;2.03;0.85;;;8.40;99.90;;;;;;5075355;28;20119;-46
2022/09/17 06:03:27;;;;;;;;;;;8.40;99.90;;;;;;5088641;28;20072;-47
2022/09/17 06:05:56;;;;;;;1.05;0.45;;;8.40;99.90;;;;;;5078844;28;19924;-46
2022/09/17 06:08:24;;;;;;;0.40;0.40;;;8.40;99.90;;;;;;5069643;28;20182;-46
2022/09/17 06:10:51;;;;;;;0.60;0.30;;;8.40;99.90;;;;;;5070809;28;20120;-46
2022/09/17 06:13:19;;;;;;;0.20;0.20;;;8.40;99.90;;;;;;5078428;28;20044;-46
2022/09/17 06:15:51;;;;;;;0.47;0.30;;;8.50;99.90;;;;;;5071045;28;20090;-46
2022/09/17 06:18:18;;;;;;;2.53;0.38;;;8.50;99.90;;;;;;5088833;28;20044;-46
2022/09/17 06:20:52;;;;;;;;;;;8.60;99.90;;;;;;5081533;28;20108;-46
2022/09/17 06:23:19;;;;;;;0.75;0.40;;;8.60;99.90;;;;;;5092725;28;19958;-46
2022/09/17 06:25:55;;;;;;;0.95;0.55;;;8.60;99.90;;;;;;5093409;28;20046;-46
2022/09/17 06:28:21;;;;;;;0.40;0.32;;;8.60;99.90;;;;;;5088117;28;20072;-46
2022/09/17 06:30:51;;;;;;;4.13;0.57;;;8.60;99.90;;;;;;5079657;28;20101;-46
2022/09/17 06:33:18;;;;;;;0.60;0.38;;;8.60;99.90;;;;;;5094075;28;20587;-46
2022/09/17 06:35:45;;;;;;;1.45;0.55;;;8.60;99.90;;;;;;5094039;28;20143;-46
2022/09/17 06:38:12;;;;;;;3.40;0.63;;;8.70;99.90;;;;;;5087436;28;20044;-46
2022/09/17 06:40:38;;;;;;;0.98;0.73;;;8.70;99.90;;;;;;5073891;28;20043;-46
2022/09/17 06:43:06;;;;;;;1.67;0.63;;;8.70;99.90;;;;;;5090347;28;20044;-47
2022/09/17 06:45:32;;;;;;;1.27;0.47;;;8.80;99.90;;;;;;5079417;28;20540;-46
2022/09/17 06:48:03;;;;;;;2.33;0.50;;;8.70;99.90;;;;;;5093807;28;20445;-46
2022/09/17 06:50:30;;;;;;;3.13;1.75;;;8.70;99.90;;;;;;5093784;28;20556;-46
2022/09/17 06:52:56;;;;;;;1.98;1.02;;;8.70;99.90;;;;;;5086710;28;20083;-46
2022/09/17 06:55:23;;;;;;;0.45;0.38;;;8.80;99.90;;;;;;5065702;28;20054;-46
2022/09/17 06:57:50;;;;;;;2.95;0.60;;;8.80;99.90;;;;;;5093780;28;20075;-46
2022/09/17 07:00:17;;;;;;;1.25;0.70;;;8.80;99.90;;;;;;5094528;28;20511;-46
2022/09/17 07:02:54;;;;;;;1.50;0.82;;;8.80;99.90;;;;;;5077377;28;20449;-46
2022/09/17 07:05:20;;;;;;;4.95;1.23;;;8.90;99.90;;;;;;5091735;28;20042;-48
2022/09/17 07:07:48;;;;;;;1.85;1.10;;;8.90;99.90;;;;;;5082068;28;20033;-47
2022/09/17 07:10:15;;;;;;;0.32;0.32;;;8.90;99.90;;;;;;5091475;28;20075;-46
2022/09/17 07:12:42;;;;;;;0.57;0.38;;;8.90;99.90;;;;;;5092751;28;20055;-47
2022/09/17 07:15:15;;;;;;;0.85;0.68;;;9.00;99.90;;;;;;5092975;28;20040;-46
2022/09/17 07:17:43;;;;;;;1.50;0.40;;;9.00;99.90;;;;;;5082958;28;20068;-47
2022/09/17 07:20:11;;;;;;;1.20;0.40;;;9.00;99.90;;;;;;5081907;28;20047;-46
2022/09/17 07:22:37;;;;;;;1.15;0.40;;;9.10;99.90;;;;;;5089345;28;20427;-46
2022/09/17 07:25:05;;;;;;;2.42;0.57;;;9.20;99.90;;;;;;5069825;28;20033;-46
2022/09/17 07:27:33;;;;;;;0.85;0.55;;;9.20;99.90;;;;;;5075681;28;20139;-46
2022/09/17 07:29:59;;;;;;;;;;;8.90;99.90;;;;;;5075771;28;20044;-46
2022/09/17 07:32:29;;;;;;;3.10;0.60;;;9.10;99.90;;;;;;5072507;28;19959;-46
2022/09/17 07:34:56;;;;;;;2.80;0.63;;;9.00;99.90;;;;;;5059601;28;20059;-46
2022/09/17 07:37:22;;;;;;;5.43;1.30;;;9.00;99.90;;;;;;5091842;28;20135;-46
2022/09/17 07:39:49;;;;;;;0.57;0.52;;;9.00;99.90;;;;;;5092923;28;20488;-46
2022/09/17 07:42:16;;;;;;;1.40;0.70;;;8.90;99.90;;;;;;5092981;28;20135;-47
2022/09/17 07:44:43;;;;;;;1.00;0.70;;;8.90;99.90;;;;;;5078161;28;20068;-47
2022/09/17 07:47:09;;;;;;;1.40;0.80;;;8.90;99.90;;;;;;5093230;28;20310;-46
2022/09/17 07:49:36;;;;;;;1.83;1.10;;;9.00;99.90;;;;;;5078655;28;20123;-46
2022/09/17 07:52:05;;;;;;;1.70;0.70;;;9.00;99.90;;;;;;5073221;28;20086;-47
2022/09/17 07:54:37;;;;;;;3.45;1.20;;;9.10;99.90;;;;;;5085391;28;20040;-46
2022/09/17 07:57:04;;;;;;;11.07;3.95;;;9.10;99.90;;;;;;5087181;28;20079;-46
2022/09/17 07:59:31;;;;;;;11.52;4.55;;;9.10;99.90;;;;;;5079062;28;20232;-49
2022/09/17 08:01:58;;;;;;;11.18;5.68;;;8.90;99.90;;;;;;5070907;28;20119;-45
2022/09/17 08:04:25;;;;;;;18.75;7.28;;;8.80;99.90;;;;;;5089902;28;20044;-47
2022/09/17 08:06:51;;;;;;;4.22;1.77;;;8.70;99.90;;;;;;5083612;28;20422;-46
2022/09/17 08:09:18;;;;;;;2.92;1.38;;;8.60;99.90;;;;;;5082314;28;20501;-46
2022/09/17 08:11:45;;;;;;;5.85;1.38;;;8.50;99.90;;;;;;5074612;28;20123;-46
2022/09/17 08:14:27;;;;;;;1.20;0.80;;;8.50;99.90;;;;;;5089408;28;20108;-46
2022/09/17 08:16:56;;;;;;;3.70;0.98;;;8.40;99.90;;;;;;5076096;28;20052;-46
2022/09/17 08:19:23;;;;;;;1.48;0.73;;;8.40;99.90;;;;;;5091392;28;20054;-46
2022/09/17 08:21:51;;;;;;;6.50;1.10;;;8.40;99.90;;;;;;5092428;28;20078;-46
2022/09/17 08:24:17;;;;;;;1.15;0.63;;;8.50;99.90;;;;;;5082134;28;20124;-46
2022/09/17 08:26:44;;;;;;;1.25;0.68;;;8.50;99.90;;;;;;5082980;28;20111;-46
2022/09/17 08:29:10;;;;;;;2.95;0.90;;;8.50;99.90;;;;;;5091815;28;20048;-46
2022/09/17 08:31:37;;;;;;;2.20;0.80;;;8.60;99.90;;;;;;5080410;28;20122;-46
2022/09/17 08:34:08;;;;;;;4.70;1.05;;;8.60;99.90;;;;;;5085097;28;20095;-46
2022/09/17 08:36:35;;;;;;;2.67;1.00;;;8.70;99.90;;;;;;5090991;28;20048;-48
2022/09/17 08:39:03;;;;;;;3.05;0.80;;;8.60;99.90;;;;;;5085703;28;20103;-46
2022/09/17 08:41:38;;;;;;;3.05;1.30;;;8.60;99.90;;;;;;5071395;28;20032;-46
2022/09/17 08:44:23;;;;;;;2.10;0.70;;;8.60;99.90;;;;;;5091443;28;20083;-47
2022/09/17 08:46:59;;;;;;;1.80;0.82;;;8.40;99.90;;;;;;5086999;28;20064;-50
2022/09/17 08:49:39;;;;;;;2.90;1.10;;;8.30;99.90;;;;;;5079947;28;20097;-46
2022/09/17 08:52:18;;;;;;;2.40;0.85;;;8.30;99.90;;;;;;5072328;28;20143;-46
2022/09/17 08:54:59;;;;;;;3.15;1.20;;;8.20;99.90;;;;;;5077152;28;20032;-46
2022/09/17 08:57:49;;;;;;;5.45;1.13;;;8.30;99.90;;;;;;5090310;28;20119;-46
2022/09/17 09:00:20;;;;;;;1.95;1.10;;;8.20;99.90;;;;;;5090300;28;20123;-46
2022/09/17 09:03:23;;;;;;;3.17;1.27;;;8.30;99.90;;;;;;5088459;28;20462;-47
2022/09/17 09:05:55;;;;;;;4.53;0.85;;;8.50;99.90;;;;;;5082447;28;20119;-46
2022/09/17 09:08:34;;;;;;;1.48;1.00;;;8.80;99.90;;;;;;5085745;28;20052;-46
2022/09/17 09:11:04;;;;;;;3.25;0.60;;;9.20;99.90;;;;;;5087259;28;20123;-46
2022/09/17 09:13:43;;;;;;;0.60;0.50;;;9.50;99.90;;;;;;5090171;28;20075;-49
2022/09/17 09:16:38;;;;;;;1.20;0.80;;;9.80;99.90;;;;;;5091209;28;20491;-48
2022/09/17 09:19:20;;;;;;;2.25;0.60;;;10.00;99.90;;;;;;5074023;28;20468;-46
2022/09/17 09:21:59;;;;;;;4.10;0.60;;;10.10;99.90;;;;;;5091144;28;20068;-46
2022/09/17 09:24:48;;;;;;;3.28;0.63;;;10.30;99.90;;;;;;5091010;28;20075;-46
2022/09/17 09:27:26;;;;;;;3.40;0.43;;;10.40;99.90;;;;;;5073974;28;20067;-46
2022/09/17 09:29:52;;;;;;;1.88;0.40;;;10.40;99.90;;;;;;5083168;28;20468;-46
2022/09/17 09:32:37;;;;;;;1.08;0.45;;;10.30;99.90;;;;;;5078366;28;20108;-46
2022/09/17 09:35:26;;;;;;;2.97;0.38;;;10.30;99.90;;;;;;5075813;28;20058;-47
2022/09/17 09:37:56;;;;;;;0.40;0.40;;;10.20;99.90;;;;;;5090517;28;20502;-47
2022/09/17 09:40:42;;;;;;;1.70;0.90;;;10.10;99.90;;;;;;5088015;28;20072;-46
2022/09/17 09:43:19;;;;;;;3.38;1.27;;;9.90;99.90;;;;;;5076317;28;20051;-47
2022/09/17 09:45:58;;;;;;;4.17;1.17;;;10.00;99.90;;;;;;5090240;28;20044;-46
2022/09/17 09:49:04;;;;;;;4.47;1.50;;;10.00;99.90;;;;;;5078578;28;20613;-46
2022/09/17 09:52:08;;;;;;;1.23;0.85;;;10.10;99.90;;;;;;5090400;28;20131;-47
2022/09/17 09:54:51;;;;;;;0.98;0.80;;;10.00;99.90;;;;;;5094299;28;20064;-46
2022/09/17 09:57:41;;;;;;;2.30;0.75;;;10.10;99.90;;;;;;5076971;28;20119;-46
2022/09/17 10:00:34;;;;;;;2.10;0.47;;;10.30;99.90;;;;;;5095314;28;20040;-46
2022/09/17 10:03:18;;;;;;;0.40;0.40;;;10.50;99.90;;;;;;5095023;28;20042;-46
2022/09/17 10:06:06;;;;;;;1.05;0.90;;;10.80;99.90;;;;;;5082739;28;20037;-46
2022/09/17 10:08:38;;;;;;;1.42;0.65;;;11.10;99.90;;;;;;5092771;28;20146;-48
2022/09/17 10:11:11;;;;;;;5.63;0.73;;;11.30;99.90;;;;;;5095260;28;20471;-46
2022/09/17 10:13:39;;;;;;;3.33;0.70;;;11.50;99.90;;;;;;5091476;28;20075;-46
2022/09/17 10:16:15;;;;;;;1.85;0.45;;;11.70;99.90;;;;;;5082647;28;20075;-50
2022/09/17 10:18:42;;;;;;;3.10;0.63;;;11.70;99.90;;;;;;5094495;28;20059;-48
2022/09/17 10:21:32;;;;;;;4.07;0.60;;;11.80;99.90;;;;;;5094809;28;20111;-47
2022/09/17 10:24:01;;;;;;;3.03;0.60;;;11.80;99.90;;;;;;5080536;28;20455;-46
2022/09/17 10:26:31;;;;;;;0.70;0.70;;;11.70;99.90;;;;;;5094005;28;20115;-47
2022/09/17 10:29:01;;;;;;;0.80;0.50;;;11.50;99.90;;;;;;5093990;28;20074;-46
2022/09/17 10:31:55;;;;;;;2.17;1.02;;;11.20;99.90;;;;;;5079779;28;20040;-48
2022/09/17 10:34:30;;;;;;;2.30;0.65;;;10.70;99.90;;;;;;5079998;28;20509;-46
2022/09/17 10:36:57;;;;;;;1.20;0.70;;;10.50;99.90;;;;;;5093778;28;20051;-47
2022/09/17 10:39:43;;;;;;;;;;;10.40;99.90;;;;;;5093834;28;20079;-46
2022/09/17 10:42:14;;;;;;;1.67;0.73;;;10.30;99.90;;;;;;5091293;28;19959;-46
2022/09/17 10:44:55;;;;;;;5.00;1.08;;;10.30;99.90;;;;;;5086633;28;20076;-47
2022/09/17 10:47:30;;;;;;;2.30;1.00;;;10.50;99.90;;;;;;5079330;28;20469;-46
2022/09/17 10:50:01;;;;;;;3.53;1.35;;;10.90;99.90;;;;;;5093984;28;20528;-46
2022/09/17 10:52:37;;;;;;;4.07;1.33;;;11.30;99.90;;;;;;5093483;28;20072;-48
2022/09/17 10:55:22;;;;;;;3.42;1.30;;;11.80;99.90;;;;;;5086861;28;20044;-45
2022/09/17 10:58:10;;;;;;;2.88;1.27;;;12.30;99.90;;;;;;5079459;28;20064;-49
2022/09/17 11:00:58;;;;;;;4.32;0.93;;;12.40;99.90;;;;;;5093862;28;20123;-51
2022/09/17 11:03:45;;;;;;;4.70;1.95;;;12.40;99.90;;;;;;5093830;28;20040;-47
2022/09/17 11:06:34;;;;;;;3.13;1.02;;;12.40;99.90;;;;;;5081887;28;20115;-48
2022/09/17 11:09:39;;;;;;;3.55;1.10;;;12.20;99.90;;;;;;5093555;28;20122;-47
2022/09/17 11:12:15;;;;;;;3.63;1.10;;;11.90;99.90;;;;;;5046693;28;20131;-46
2022/09/17 11:15:00;;;;;;;1.85;1.30;;;11.50;99.90;;;;;;5078467;28;20058;-48
2022/09/17 11:17:59;;;;;;;2.47;1.17;;;11.40;99.90;;;;;;5092143;28;20044;-46
2022/09/17 11:20:49;;;;;;;1.95;0.95;;;11.10;99.90;;;;;;5092681;28;20040;-46
2022/09/17 11:23:27;;;;;;;3.20;1.10;;;10.90;99.90;;;;;;5087838;28;20115;-47
2022/09/17 11:26:07;;;;;;;1.40;0.80;;;10.90;99.90;;;;;;5088184;28;20128;-47
2022/09/17 11:28:39;;;;;;;2.88;1.20;;;10.70;99.90;;;;;;5093185;28;20075;-47
2022/09/17 11:31:52;;;;;;;2.00;0.85;;;10.60;99.90;;;;;;5079975;28;20135;-47
2022/09/17 11:34:29;;;;;;;7.45;1.17;;;10.50;99.90;;;;;;5076632;28;20044;-46
2022/09/17 11:37:16;;;;;;;2.57;1.27;;;10.40;99.90;;;;;;5092672;28;20135;-46
2022/09/17 11:40:03;;;;;;;3.95;1.25;;;10.30;99.90;;;;;;5092627;28;20067;-46
2022/09/17 11:46:58;;;;;;;1.77;1.30;;;10.50;99.90;;;;;;5078061;28;20074;-45
2022/09/17 11:49:34;;;;;;;1.80;0.90;;;10.90;99.90;;;;;;5091392;28;20048;-45
2022/09/17 11:52:26;;;;;;;3.83;0.90;;;11.10;99.90;;;;;;5086641;28;20369;-45
2022/09/17 11:55:22;;;;;;;1.15;0.50;;;11.30;99.90;;;;;;5058422;28;20106;-45
2022/09/17 11:57:56;;;;;;;0.85;0.55;;;11.50;99.90;;;;;;5072783;28;20127;-45
2022/09/17 12:00:23;;;;;;;1.30;0.60;;;11.40;99.90;;;;;;5064608;28;20540;-45
2022/09/17 12:02:56;;;;;;;1.42;0.80;;;11.20;99.90;;;;;;5066901;28;20037;-45
2022/09/17 12:05:32;;;;;;;2.65;1.10;;;11.00;99.90;;;;;;5071748;28;20531;-45
2022/09/17 12:08:15;;;;;;;3.25;1.00;;;10.90;99.90;;;;;;5072253;28;20047;-45
2022/09/17 12:10:41;;;;;;;2.92;0.80;;;10.80;99.90;;;;;;5077171;28;20051;-45
2022/09/17 12:13:38;;;;;;;3.90;0.52;;;10.70;99.90;;;;;;5068651;28;20172;-45
2022/09/17 12:16:29;;;;;;;1.30;0.60;;;10.70;99.90;;;;;;5071921;28;20079;-45
2022/09/17 12:19:03;;;;;;;3.10;0.95;;;10.60;99.90;;;;;;5071992;28;20048;-45
2022/09/17 12:21:43;;;;;;;4.50;1.42;;;10.50;99.90;;;;;;5066782;28;20040;-46
2022/09/17 12:24:25;;;;;;;3.72;1.00;;;10.50;99.90;;;;;;5071493;28;20123;-45
2022/09/17 12:27:08;;;;;;;3.50;0.40;;;10.40;99.90;;;;;;5066653;28;20469;-45
2022/09/17 12:29:47;;;;;;;0.85;0.60;;;10.40;99.90;;;;;;5051082;28;20144;-47
2022/09/17 12:32:28;;;;;;;1.70;0.52;;;10.50;99.90;;;;;;5051905;28;20132;-45
2022/09/17 12:35:13;;;;;;;3.50;0.60;;;10.40;99.90;;;;;;5057365;28;20083;-46
2022/09/17 12:38:10;;;;;;;1.17;0.68;;;10.40;99.90;;;;;;5064783;28;20120;-46
2022/09/17 12:41:03;;;;;;;2.17;0.80;;;10.30;99.90;;;;;;5071780;28;20120;-45
2022/09/17 12:43:51;;;;;;;1.17;0.70;;;10.30;99.90;;;;;;5064024;28;20115;-45
2022/09/17 12:46:43;;;;;;;1.98;0.88;;;10.20;99.90;;;;;;5069909;28;20478;-45
2022/09/17 12:49:37;;;;;;;1.25;0.68;;;10.20;99.90;;;;;;5070209;28;20045;-45
2022/09/17 12:52:28;;;;;;;2.78;0.80;;;10.00;99.90;;;;;;5071725;28;20119;-45
2022/09/17 12:55:13;;;;;;;6.60;1.13;;;10.00;99.90;;;;;;5052945;28;20049;-45
2022/09/17 12:57:58;;;;;;;1.50;1.10;;;9.80;99.90;;;;;;5070343;28;20072;-45
2022/09/17 13:00:25;;;;;;;6.05;1.20;;;9.70;99.90;;;;;;5064751;28;20505;-45
2022/09/17 13:03:03;;;;;;;;;;;9.80;99.90;;;;;;5070868;28;20072;-45
2022/09/17 13:05:50;;;;;;;3.95;1.15;;;9.90;99.90;;;;;;5069923;28;19970;-45
2022/09/17 13:08:50;;;;;;;3.80;1.00;;;10.00;99.90;;;;;;5071352;28;20491;-45
2022/09/17 13:11:45;;;;;;;2.65;0.70;;;10.10;99.90;;;;;;5069579;28;20076;-45
2022/09/17 13:14:23;;;;;;;2.78;1.08;;;10.00;99.90;;;;;;5070249;28;20068;-45
2022/09/17 13:16:55;;;;;;;;;;;9.90;99.90;;;;;;5065240;28;20072;-45
2022/09/17 13:19:25;;;;;;;5.47;1.45;;;9.90;99.90;;;;;;5063665;28;19927;-45
2022/09/17 13:21:57;;;;;;;2.00;1.02;;;9.90;99.90;;;;;;5070393;28;20508;-45
2022/09/17 13:24:28;;;;;;;1.38;1.20;;;9.80;99.90;;;;;;5070291;28;20456;-45
2022/09/17 13:26:57;;;;;;;3.22;1.00;;;9.90;99.90;;;;;;5061571;28;20531;-45
2022/09/17 13:29:46;;;;;;;5.35;1.35;;;9.80;99.90;;;;;;5070350;28;20068;-45
2022/09/17 13:32:30;;;;;;;;;;;9.80;99.90;;;;;;5071045;28;20078;-45
2022/09/17 13:35:17;;;;;;;1.52;0.88;;;9.80;99.90;;;;;;5070896;28;20344;-45
2022/09/17 13:37:58;;;;;;;1.27;0.90;;;9.80;99.90;;;;;;5064264;28;20464;-45
2022/09/17 13:40:35;;;;;;;1.90;0.88;;;9.80;99.90;;;;;;5070482;28;20505;-45